11:03
Airports
History
Links
Donate
Help keep this website running!
PayPal
Bitcoin
Information on this page is community maintained and may be outdated or inaccurate and is intended for reference only or PC simulator navigating!
Always use approved charts for navigating.
LFTZ
La Mole
La Mole (LFTZ)
La Môle, Provence-Alpes-Côte d'Azur, France (83310)
(C)
Lat/Lng:43° 12' 19.54" N / 6° 28' 56.23" E
43.205427 / 6.482286
Elevation:58'ft 18mMSL
ID / ICAO:LFTZ
Runways:1
Longest:(06-24) 1,142.6m 3,749ft Concrete
Controlled:Yes
Distance To
Airport ID:
Airport Radio Frequencies
LA MOLE FSS: 118.12
Approach: 126.15
Nearby VORs <50NM
Nearby NDBs
Nearby WeatherUpdated 04-30-17 10:30 GMT
Nearby weather at LFMC, Le Cannet located 13.3 nautical miles from LFTZ
Altimeter: 29.97
Visibility: 6.2 statute miles
Wind: 9 knots (140°)
Temp: 17°c 63°f
Humidity: 36.4%

METAR: LFMC 301030Z AUTO 14009KT 9999 ////// 17/02 Q1015

(Powered by phpweather)
Runway 06 / 24
Dimensions:1142.6 x 29.9m 3749' x 98'ft
Surface:Concrete
Runway 06 [A]Runway 24 [B]
Heading:061°TH 241°TH
Lat:
Lng:
43° 12' 10.85"N
6° 28' 33.99"E
43° 12' 28.22"N
6° 29' 18.47"E
TDZ:Yes, lighted
Google Map
Nearby Airports
(C) Le Cannet 13.3 NM
LFMC (WX) NNW 338°
(C) Pierrefeu 18.1 NM
LFTF W 279°
(C) Le Palyvestre Navy 18.3 NM
LFTH (WX) WSW 246°
(C) Fayence 29.9 NM
LFMF NNE 20°
(C) Mandelieu 33.5 NM
LFMD (WX) NE 45°
(C) Le Castellet 35.2 NM
LFMQ W 275°
(C) Ste Croix sur Verdon 42.8 NM
429 NNW 337°
VFR Chart
Flight Planning at SkyVector.com